Time;durP1;ratioP1;P1;durP2;ratioP2;P2;SDS_P1;SDS_P2;PMS_P1;PMS_P2;Temp;Humidity;BMP_temperature;BMP_pressure;BME280_temperature;BME280_humidity;BME280_pressure;Samples;Min_cycle;Max_cycle;Signal;HPM_P1;HPM_P2
2023/08/16 00:00:17;;;;;;;10.40;9.40;;;;;;;17.67;100.00;97735.80;110178;1244;69163;-69
2023/08/16 00:03:06;;;;;;;10.30;9.20;;;;;;;17.61;100.00;97734.05;110142;1241;58945;-69
2023/08/16 00:05:42;;;;;;;9.90;9.00;;;;;;;17.59;100.00;97730.55;110206;1242;58959;-70
2023/08/16 00:08:14;;;;;;;9.80;8.70;;;;;;;17.57;100.00;97732.33;110212;1243;69929;-69
2023/08/16 00:10:47;;;;;;;8.60;7.30;;;;;;;17.58;100.00;97727.48;110184;1244;68423;-69
2023/08/16 00:13:18;;;;;;;10.10;8.30;;;;;;;17.58;100.00;97723.91;110180;1243;68592;-69
2023/08/16 00:15:48;;;;;;;8.10;7.30;;;;;;;17.59;100.00;97725.30;110165;1241;59228;-69
2023/08/16 00:18:19;;;;;;;8.60;7.50;;;;;;;17.61;100.00;97717.52;110187;1241;58848;-69
2023/08/16 00:20:49;;;;;;;;;;;;;;;17.60;100.00;97722.30;110174;1245;70656;-69
2023/08/16 00:23:20;;;;;;;7.40;6.70;;;;;;;17.61;100.00;97725.06;110191;1243;68671;-69
2023/08/16 00:25:51;;;;;;;7.10;6.50;;;;;;;17.62;100.00;97727.27;110190;1243;69267;-69
2023/08/16 00:28:22;;;;;;;6.40;5.80;;;;;;;17.63;100.00;97723.41;110193;1241;58869;-69
2023/08/16 00:30:56;;;;;;;6.90;6.30;;;;;;;17.65;100.00;97717.63;110168;1241;58898;-68
2023/08/16 00:33:26;;;;;;;7.60;6.90;;;;;;;17.66;100.00;97714.49;110110;1243;70579;-69
2023/08/16 00:35:56;;;;;;;7.70;7.00;;;;;;;17.67;100.00;97713.20;110175;1241;68934;-69
2023/08/16 00:38:27;;;;;;;7.70;6.80;;;;;;;17.69;100.00;97716.69;110107;1245;68421;-69
2023/08/16 00:41:00;;;;;;;7.50;6.60;;;;;;;17.72;100.00;97721.91;110159;1242;58922;-69
2023/08/16 00:43:30;;;;;;;7.70;6.90;;;;;;;17.78;100.00;97716.87;110209;1244;58902;-70
2023/08/16 00:46:03;;;;;;;6.60;6.00;;;;;;;17.86;100.00;97719.52;110193;1241;69701;-69
2023/08/16 00:48:37;;;;;;;6.50;5.90;;;;;;;17.91;100.00;97716.59;110201;1242;67739;-70
2023/08/16 00:51:10;;;;;;;7.00;6.30;;;;;;;17.95;100.00;97719.27;110136;1244;68537;-69
2023/08/16 00:53:42;;;;;;;7.30;6.10;;;;;;;17.98;100.00;97716.02;110212;1243;58939;-70
2023/08/16 00:56:17;;;;;;;7.10;6.30;;;;;;;17.99;100.00;97715.06;110168;1244;59319;-69
2023/08/16 00:58:50;;;;;;;6.30;5.70;;;;;;;18.00;100.00;97709.23;110187;1243;70656;-69
2023/08/16 01:01:25;;;;;;;6.70;6.10;;;;;;;18.01;100.00;97712.91;110201;1241;68302;-69
2023/08/16 01:04:02;;;;;;;7.20;6.50;;;;;;;18.03;100.00;97705.87;110230;1241;68307;-70
2023/08/16 01:06:34;;;;;;;7.10;6.40;;;;;;;18.05;100.00;97708.79;110201;1244;59731;-69
2023/08/16 01:09:05;;;;;;;7.60;6.80;;;;;;;18.06;100.00;97704.06;110170;1241;59687;-69
2023/08/16 01:11:46;;;;;;;6.90;6.30;;;;;;;18.05;100.00;97703.54;110172;1241;71451;-70
2023/08/16 01:14:31;;;;;;;8.10;7.10;;;;;;;18.01;100.00;97704.56;110188;1243;68362;-69
2023/08/16 01:17:05;;;;;;;6.60;5.90;;;;;;;17.96;100.00;97698.89;110140;1241;69005;-69
2023/08/16 01:19:37;;;;;;;8.10;7.30;;;;;;;17.92;100.00;97699.52;110160;1241;60188;-69
2023/08/16 01:22:34;;;;;;;7.40;6.70;;;;;;;17.90;100.00;97696.55;110138;1244;60155;-69
2023/08/16 01:25:10;;;;;;;7.60;6.90;;;;;;;17.92;100.00;97697.79;110152;1244;71425;-68
2023/08/16 01:27:43;;;;;;;7.00;6.40;;;;;;;17.96;99.93;97701.38;110151;1241;69353;-69
2023/08/16 01:30:20;;;;;;;7.20;6.40;;;;;;;18.02;99.21;97704.86;110095;1244;69168;-68
2023/08/16 01:32:53;;;;;;;7.20;6.30;;;;;;;18.06;98.93;97704.27;110118;1241;59694;-68
2023/08/16 01:35:26;;;;;;;7.40;6.70;;;;;;;18.09;98.61;97707.77;110165;1244;59663;-68
2023/08/16 01:37:59;;;;;;;7.40;6.70;;;;;;;18.10;98.13;97704.80;110137;1241;71433;-67
2023/08/16 01:40:52;;;;;;;7.20;6.50;;;;;;;18.10;98.09;97702.85;110090;1244;69097;-68
2023/08/16 01:43:32;;;;;;;7.10;6.40;;;;;;;18.09;97.36;97707.21;110187;1241;68696;-69
2023/08/16 01:46:05;;;;;;;7.20;6.60;;;;;;;18.08;97.30;97703.73;110120;1241;59722;-70
2023/08/16 01:48:40;;;;;;;6.50;6.00;;;;;;;18.08;97.09;97700.63;110184;1243;59669;-68
2023/08/16 01:51:11;;;;;;;6.50;5.80;;;;;;;18.07;96.53;97699.77;110134;1241;72072;-69
2023/08/16 01:53:42;;;;;;;6.40;5.80;;;;;;;18.06;96.45;97697.55;110198;1243;68500;-70
2023/08/16 01:56:12;;;;;;;6.20;5.70;;;;;;;18.05;96.60;97693.32;110124;1241;68564;-70
2023/08/16 01:58:42;;;;;;;6.90;6.20;;;;;;;18.03;95.96;97697.02;110110;1244;59712;-68
2023/08/16 02:01:13;;;;;;;6.90;6.30;;;;;;;18.01;96.91;97690.67;110084;1241;59795;-70
2023/08/16 02:03:44;;;;;;;6.30;5.70;;;;;;;17.97;97.35;97693.35;110164;1241;70610;-69
2023/08/16 02:06:15;;;;;;;6.70;6.00;;;;;;;17.92;97.70;97691.55;110193;1244;69245;-69
2023/08/16 02:08:45;;;;;;;7.30;6.60;;;;;;;17.88;97.06;97695.54;110139;1244;69298;-69
2023/08/16 02:11:16;;;;;;;6.70;6.10;;;;;;;17.82;96.79;97692.18;110152;1241;59680;-68
2023/08/16 02:13:48;;;;;;;7.10;6.10;;;;;;;17.76;97.59;97691.49;110140;1242;59737;-69
2023/08/16 02:16:19;;;;;;;6.90;6.20;;;;;;;17.71;98.73;97688.64;110127;1243;71275;-69
2023/08/16 02:18:52;;;;;;;7.10;6.20;;;;;;;17.66;97.47;97687.55;110142;1244;69204;-69
2023/08/16 02:21:22;;;;;;;6.80;6.00;;;;;;;17.69;98.67;97689.27;110145;1241;69113;-68
2023/08/16 02:23:52;;;;;;;7.40;6.70;;;;;;;17.71;98.44;97683.94;110101;1244;59750;-70
2023/08/16 02:26:22;;;;;;;7.50;6.80;;;;;;;17.68;97.13;97685.45;110117;1241;59737;-69
2023/08/16 02:28:53;;;;;;;7.80;7.00;;;;;;;17.65;96.32;97681.10;110190;1244;71284;-70
2023/08/16 02:31:23;;;;;;;8.10;7.40;;;;;;;17.64;96.99;97680.02;110155;1243;69234;-70
2023/08/16 02:33:54;;;;;;;7.70;6.90;;;;;;;17.65;96.80;97681.85;110108;1241;68567;-70
2023/08/16 02:36:24;;;;;;;8.00;7.30;;;;;;;17.69;96.22;97681.63;110146;1244;59682;-69
2023/08/16 02:38:55;;;;;;;7.70;6.90;;;;;;;17.73;95.96;97684.04;110126;1244;59710;-69
2023/08/16 02:41:24;;;;;;;7.60;6.90;;;;;;;17.75;96.05;97688.79;110156;1244;71430;-67
2023/08/16 02:43:57;;;;;;;9.10;7.20;;;;;;;17.76;95.56;97691.92;110170;1241;69583;-69
2023/08/16 02:46:29;;;;;;;7.50;6.80;;;;;;;17.73;96.54;97685.81;110119;1245;69338;-70
2023/08/16 02:49:03;;;;;;;7.00;6.40;;;;;;;17.70;98.73;97690.83;110150;1251;59752;-69
2023/08/16 02:51:34;;;;;;;6.80;6.20;;;;;;;17.68;99.88;97699.77;110131;1242;59690;-69
2023/08/16 02:54:06;;;;;;;6.60;5.90;;;;;;;17.64;99.56;97696.55;110163;1241;71382;-69
2023/08/16 02:56:36;;;;;;;6.00;5.40;;;;;;;17.62;99.38;97698.36;110160;1243;68921;-69
2023/08/16 02:59:12;;;;;;;6.20;5.60;;;;;;;17.61;99.94;97700.40;110138;1244;68325;-69
2023/08/16 03:01:42;;;;;;;6.60;6.00;;;;;;;17.60;99.10;97699.10;110126;1241;59686;-69
2023/08/16 03:04:12;;;;;;;6.00;5.40;;;;;;;17.59;97.68;97701.08;110187;1244;59654;-69
2023/08/16 03:06:42;;;;;;;6.00;5.40;;;;;;;17.59;97.73;97702.55;110160;1244;71389;-70
2023/08/16 03:09:13;;;;;;;5.80;5.30;;;;;;;17.59;97.32;97704.95;110106;1244;69222;-69
2023/08/16 03:11:43;;;;;;;6.20;5.60;;;;;;;17.60;96.36;97696.41;110155;1241;68522;-69
2023/08/16 03:14:14;;;;;;;6.40;5.60;;;;;;;17.61;95.95;97691.38;110088;1241;59719;-69
2023/08/16 03:16:44;;;;;;;6.10;5.50;;;;;;;17.64;96.27;97693.02;110085;1244;59701;-70
2023/08/16 03:19:15;;;;;;;6.20;5.60;;;;;;;17.69;95.74;97688.11;110150;1241;71383;-69
2023/08/16 03:21:45;;;;;;;5.90;5.30;;;;;;;17.75;94.70;97690.52;110095;1244;68654;-70
2023/08/16 03:24:15;;;;;;;6.10;5.50;;;;;;;17.84;94.13;97696.73;110121;1241;69114;-70
2023/08/16 03:26:46;;;;;;;7.00;6.40;;;;;;;17.90;95.39;97698.86;110084;1244;59675;-69
2023/08/16 03:29:16;;;;;;;6.20;5.60;;;;;;;17.92;96.36;97707.74;110151;1243;59686;-70
2023/08/16 03:31:47;;;;;;;7.80;6.40;;;;;;;17.86;95.21;97711.45;110071;1241;71369;-69
2023/08/16 03:34:17;;;;;;;7.10;6.40;;;;;;;17.85;97.97;97704.49;110175;1244;69797;-69
2023/08/16 03:36:48;;;;;;;6.20;5.70;;;;;;;17.85;96.87;97709.77;110048;1241;69373;-69
2023/08/16 03:39:20;;;;;;;6.60;6.10;;;;;;;17.86;96.55;97703.98;110114;1243;59756;-69
2023/08/16 03:41:50;;;;;;;6.00;5.40;;;;;;;17.88;96.13;97711.17;110133;1241;59664;-69
2023/08/16 03:44:20;;;;;;;6.70;6.00;;;;;;;18.01;97.19;97715.39;110178;1243;71356;-69
2023/08/16 03:46:51;;;;;;;6.70;6.10;;;;;;;18.08;96.87;97717.85;110124;1241;68433;-70
2023/08/16 03:49:21;;;;;;;7.30;6.70;;;;;;;18.01;97.20;97725.52;110128;1244;68446;-70
2023/08/16 03:51:51;;;;;;;6.60;5.90;;;;;;;18.02;96.71;97726.21;110085;1245;59734;-69
2023/08/16 03:54:21;;;;;;;6.80;6.10;;;;;;;17.98;99.26;97734.36;110152;1241;59740;-69
2023/08/16 03:56:51;;;;;;;6.10;5.50;;;;;;;17.92;99.70;97738.48;110139;1243;70298;-68
2023/08/16 03:59:23;;;;;;;6.70;6.10;;;;;;;17.89;99.25;97733.67;110152;1245;69679;-67
2023/08/16 04:01:54;;;;;;;7.20;6.60;;;;;;;17.88;99.86;97733.75;110159;1241;69294;-68
2023/08/16 04:04:25;;;;;;;6.70;6.00;;;;;;;17.86;100.00;97739.48;110178;1244;59735;-69
2023/08/16 04:06:55;;;;;;;6.30;5.70;;;;;;;17.85;100.00;97744.67;110145;1244;59673;-69
2023/08/16 04:09:25;;;;;;;6.50;5.90;;;;;;;17.85;100.00;97748.11;110102;1241;71201;-67
2023/08/16 04:11:55;;;;;;;7.50;6.50;;;;;;;17.87;100.00;97756.24;110138;1243;69243;-69
2023/08/16 04:14:28;;;;;;;8.40;6.40;;;;;;;17.87;99.96;97771.39;110090;1244;68274;-70
2023/08/16 04:17:00;;;;;;;7.80;7.00;;;;;;;17.88;99.89;97776.81;110115;1244;60104;-69
2023/08/16 04:19:32;;;;;;;7.30;6.70;;;;;;;17.89;99.83;97788.34;110112;1245;59681;-67
2023/08/16 04:22:02;;;;;;;8.10;7.30;;;;;;;17.89;99.84;97797.31;110124;1244;71449;-70
2023/08/16 04:24:32;;;;;;;12.20;10.20;;;;;;;17.82;100.00;97802.05;110123;1243;68379;-68
2023/08/16 04:27:03;;;;;;;;;;;;;;;17.58;100.00;97807.99;110152;1245;69246;-69
2023/08/16 04:29:33;;;;;;;14.30;11.20;;;;;;;17.37;100.00;97811.72;110126;1244;59725;-69
2023/08/16 04:32:04;;;;;;;10.40;9.30;;;;;;;17.16;100.00;97815.44;110146;1244;59801;-69
2023/08/16 04:34:33;;;;;;;11.10;9.90;;;;;;;17.02;100.00;97824.36;110121;1244;71990;-69
2023/08/16 04:37:02;;;;;;;9.30;8.30;;;;;;;16.91;100.00;97829.54;110142;1244;68726;-70
2023/08/16 04:39:32;;;;;;;;;;;;;;;16.89;100.00;97831.52;110107;1244;67452;-68
2023/08/16 04:42:02;;;;;;;8.20;7.40;;;;;;;16.91;100.00;97820.30;110114;1241;59736;-68
2023/08/16 04:44:33;;;;;;;7.50;6.80;;;;;;;16.93;100.00;97814.77;110130;1244;59652;-68
2023/08/16 04:47:03;;;;;;;7.60;6.90;;;;;;;16.96;100.00;97809.02;110131;1241;71687;-68
2023/08/16 04:49:33;;;;;;;8.40;7.60;;;;;;;16.98;100.00;97798.13;110153;1244;69845;-68
2023/08/16 04:52:05;;;;;;;11.20;10.00;;;;;;;17.02;100.00;97793.86;110081;1245;69659;-69
2023/08/16 04:54:34;;;;;;;10.80;9.30;;;;;;;17.07;100.00;97788.65;110133;1244;59693;-69
2023/08/16 04:57:04;;;;;;;8.20;7.50;;;;;;;17.13;100.00;97772.23;110171;1241;59731;-68
2023/08/16 04:59:37;;;;;;;8.20;7.40;;;;;;;17.22;100.00;97764.52;110153;1241;71791;-69
2023/08/16 05:02:08;;;;;;;8.40;7.30;;;;;;;17.32;100.00;97770.30;110084;1244;68463;-68
2023/08/16 05:04:37;;;;;;;7.20;6.50;;;;;;;17.40;100.00;97773.08;110116;1244;68512;-68
2023/08/16 05:07:06;;;;;;;8.80;7.90;;;;;;;17.44;100.00;97765.30;110117;1241;59664;-67
2023/08/16 05:09:36;;;;;;;8.10;7.40;;;;;;;17.46;100.00;97756.13;110143;1245;59678;-69
2023/08/16 05:12:05;;;;;;;7.80;7.00;;;;;;;17.49;100.00;97753.20;110137;1243;71358;-69
2023/08/16 05:14:34;;;;;;;7.60;6.90;;;;;;;17.52;100.00;97748.32;110151;1245;69817;-68
2023/08/16 05:17:04;;;;;;;10.00;9.00;;;;;;;17.54;100.00;97753.04;110121;1244;69143;-70
2023/08/16 05:19:33;;;;;;;;;;;;;;;17.55;100.00;97752.91;110064;1244;59776;-68
2023/08/16 05:22:02;;;;;;;8.10;7.40;;;;;;;17.55;100.00;97762.96;110185;1241;59750;-69
2023/08/16 05:24:32;;;;;;;9.20;8.30;;;;;;;17.57;100.00;97776.86;110161;1241;71373;-68
2023/08/16 05:27:02;;;;;;;8.50;7.60;;;;;;;17.61;100.00;97766.14;110156;1244;69242;-68
2023/08/16 05:29:31;;;;;;;8.60;7.80;;;;;;;17.66;100.00;97748.91;110087;1243;68529;-69
2023/08/16 05:32:01;;;;;;;;;;;;;;;17.68;100.00;97719.58;110090;1241;59753;-68
2023/08/16 05:34:29;;;;;;;8.50;7.70;;;;;;;17.71;100.00;97693.79;110102;1245;59696;-69
2023/08/16 05:36:58;;;;;;;8.60;7.70;;;;;;;17.86;100.00;97685.12;110130;1243;71423;-68
2023/08/16 05:39:27;;;;;;;10.90;9.00;;;;;;;17.95;100.00;97702.69;110145;1243;69749;-69
2023/08/16 05:41:57;;;;;;;12.50;11.30;;;;;;;18.05;100.00;97718.30;110146;1241;68552;-68
2023/08/16 05:44:25;;;;;;;10.00;9.10;;;;;;;18.09;100.00;97709.30;110119;1243;59692;-68
2023/08/16 05:46:55;;;;;;;10.60;9.60;;;;;;;18.11;100.00;97684.44;110158;1244;59682;-67
2023/08/16 05:49:24;;;;;;;10.50;9.40;;;;;;;18.13;100.00;97681.91;110151;1243;71402;-68
2023/08/16 05:51:54;;;;;;;10.10;9.20;;;;;;;18.16;100.00;97658.63;110180;1245;69258;-68
2023/08/16 05:54:23;;;;;;;9.20;8.30;;;;;;;18.32;100.00;97653.36;110140;1243;68388;-68
2023/08/16 05:56:52;;;;;;;8.80;8.00;;;;;;;18.65;99.90;97641.91;110108;1245;59730;-67
2023/08/16 05:59:21;;;;;;;7.60;6.90;;;;;;;18.99;98.21;97645.85;110129;1243;59630;-69
2023/08/16 06:01:50;;;;;;;8.70;7.90;;;;;;;19.27;95.66;97641.33;110153;1244;71375;-70
2023/08/16 06:04:19;;;;;;;9.90;9.00;;;;;;;19.51;94.36;97709.87;110125;1245;69590;-67
2023/08/16 06:06:49;;;;;;;10.20;8.90;;;;;;;19.68;94.70;97763.98;110138;1241;69356;-69
2023/08/16 06:09:18;;;;;;;8.70;7.80;;;;;;;19.76;92.68;97763.88;110162;1243;59689;-69
2023/08/16 06:11:49;;;;;;;9.80;7.90;;;;;;;19.86;90.74;97755.52;110157;1244;59684;-68
2023/08/16 06:14:18;;;;;;;8.10;7.00;;;;;;;20.00;89.57;97727.55;110190;1241;71352;-69
2023/08/16 06:16:47;;;;;;;7.40;6.70;;;;;;;20.08;91.60;97711.98;110169;1243;69542;-68
2023/08/16 06:19:16;;;;;;;8.10;7.30;;;;;;;20.10;92.54;97726.97;110143;1241;69290;-68
2023/08/16 06:21:46;;;;;;;7.50;6.80;;;;;;;20.09;93.69;97737.69;110128;1245;59708;-69
2023/08/16 06:24:15;;;;;;;7.30;6.70;;;;;;;20.10;93.12;97736.70;110196;1245;59671;-68
2023/08/16 06:26:43;;;;;;;7.10;6.40;;;;;;;20.13;94.31;97738.20;110134;1243;71381;-69
2023/08/16 06:29:13;;;;;;;7.10;6.50;;;;;;;20.13;94.95;97728.94;110139;1243;68483;-68
2023/08/16 06:31:42;;;;;;;6.90;6.30;;;;;;;20.14;94.42;97715.63;110125;1241;69740;-68
2023/08/16 06:34:11;;;;;;;7.30;6.50;;;;;;;20.12;96.52;97708.42;110174;1244;59745;-69
2023/08/16 06:36:41;;;;;;;6.60;6.00;;;;;;;20.06;95.51;97705.79;110185;1241;59709;-68
2023/08/16 06:39:10;;;;;;;6.40;5.90;;;;;;;20.07;94.09;97698.69;110126;1243;72315;-68
2023/08/16 06:41:39;;;;;;;8.50;7.20;;;;;;;20.07;94.55;97710.73;110197;1243;69109;-69
2023/08/16 06:44:10;;;;;;;8.20;7.40;;;;;;;20.07;95.77;97714.34;110103;1245;68382;-69
2023/08/16 06:46:39;;;;;;;8.70;7.90;;;;;;;20.03;97.58;97728.64;110109;1245;59719;-69
2023/08/16 06:49:09;;;;;;;9.80;8.80;;;;;;;19.97;97.38;97745.02;110139;1245;59667;-69
2023/08/16 06:51:38;;;;;;;12.50;9.80;;;;;;;19.85;99.35;97761.48;110145;1244;70783;-70
2023/08/16 06:54:07;;;;;;;10.90;9.70;;;;;;;19.67;100.00;97761.48;110143;1243;69536;-68
2023/08/16 06:56:36;;;;;;;9.80;8.70;;;;;;;19.51;100.00;97760.06;110143;1244;68867;-70
2023/08/16 06:59:08;;;;;;;9.10;8.20;;;;;;;19.39;100.00;97750.70;110121;1242;59697;-68
2023/08/16 07:01:36;;;;;;;8.10;7.40;;;;;;;19.48;100.00;97739.71;110129;1243;59616;-69
2023/08/16 07:04:05;;;;;;;8.00;7.20;;;;;;;19.60;100.00;97733.33;110178;1245;70649;-69
2023/08/16 07:06:35;;;;;;;7.80;7.10;;;;;;;19.76;100.00;97742.76;110162;1241;68485;-69
2023/08/16 07:09:04;;;;;;;11.40;10.30;;;;;;;19.93;100.00;97746.35;110141;1244;69270;-69
2023/08/16 07:11:34;;;;;;;11.50;9.70;;;;;;;19.98;100.00;97752.73;110139;1244;59673;-67
2023/08/16 07:14:03;;;;;;;12.00;10.70;;;;;;;19.99;100.00;97757.17;110162;1244;59630;-69
2023/08/16 07:16:33;;;;;;;9.70;8.70;;;;;;;20.01;100.00;97759.99;110174;1241;70306;-66
2023/08/16 07:19:04;;;;;;;12.80;11.50;;;;;;;20.04;100.00;97757.56;109704;1243;694172;-69
2023/08/16 07:21:35;;;;;;;10.40;9.40;;;;;;;20.07;100.00;97747.17;110165;1251;69332;-66
2023/08/16 07:24:04;;;;;;;11.00;9.90;;;;;;;20.13;100.00;97746.29;110160;1244;59660;-70
2023/08/16 07:26:33;;;;;;;;;;;;;;;20.31;100.00;97756.23;110162;1241;59604;-70
2023/08/16 07:29:02;;;;;;;9.40;8.60;;;;;;;20.39;99.92;97753.92;110183;1244;71871;-70
2023/08/16 07:31:32;;;;;;;9.30;8.50;;;;;;;20.48;98.12;97748.07;110162;1245;69751;-68
2023/08/16 07:34:01;;;;;;;;;;;;;;;20.66;97.14;97754.81;110144;1244;70276;-69
2023/08/16 07:36:30;;;;;;;10.90;9.80;;;;;;;20.77;95.94;97764.18;110145;1244;59670;-68
2023/08/16 07:39:04;;;;;;;12.00;10.90;;;;;;;20.72;95.56;97767.63;110163;1241;59805;-69
2023/08/16 07:41:34;;;;;;;11.60;10.50;;;;;;;20.51;97.12;97778.91;110158;1244;70575;-69
2023/08/16 07:44:04;;;;;;;12.20;11.00;;;;;;;20.43;99.16;97780.67;110157;1244;69295;-68
2023/08/16 07:46:33;;;;;;;13.80;12.40;;;;;;;20.50;98.76;97783.63;110160;1243;69184;-67
2023/08/16 07:49:02;;;;;;;13.00;11.30;;;;;;;20.51;99.49;97788.86;110146;1243;59750;-68
2023/08/16 07:51:31;;;;;;;15.10;13.00;;;;;;;20.51;98.79;97786.65;110130;1243;59679;-68
2023/08/16 07:54:01;;;;;;;14.00;12.60;;;;;;;20.53;97.60;97802.02;110134;1244;70634;-69
2023/08/16 07:56:31;;;;;;;14.00;12.50;;;;;;;20.49;98.11;97812.52;110131;1241;69402;-70
2023/08/16 07:59:00;;;;;;;13.40;10.50;;;;;;;20.51;98.41;97818.38;110094;1245;69306;-68
2023/08/16 08:01:29;;;;;;;13.50;10.00;;;;;;;20.39;99.98;97823.67;110146;1243;59750;-69
2023/08/16 08:03:59;;;;;;;14.20;12.20;;;;;;;20.39;100.00;97833.31;110121;1243;59687;-67
2023/08/16 08:06:28;;;;;;;11.70;10.50;;;;;;;20.31;100.00;97830.08;110136;1241;71432;-70
2023/08/16 08:08:57;;;;;;;10.40;9.40;;;;;;;20.36;100.00;97827.88;110188;1244;69825;-69
2023/08/16 08:11:26;;;;;;;;;;;;;;;20.43;100.00;97832.65;110158;1241;69883;-69
2023/08/16 08:13:57;;;;;;;9.70;8.70;;;;;;;20.51;100.00;97832.91;110140;1241;59673;-68
2023/08/16 08:16:26;;;;;;;9.20;8.30;;;;;;;20.62;99.88;97831.19;110191;1241;59710;-69
2023/08/16 08:18:56;;;;;;;8.90;8.00;;;;;;;20.72;99.02;97818.43;110109;1245;71295;-69
2023/08/16 08:21:24;;;;;;;8.90;8.10;;;;;;;20.82;97.56;97804.95;110154;1243;69339;-68
2023/08/16 08:23:54;;;;;;;9.50;8.70;;;;;;;20.87;97.34;97797.48;110131;1242;69760;-69
2023/08/16 08:26:26;;;;;;;8.70;7.80;;;;;;;20.94;97.42;97785.29;110129;1244;59760;-68
2023/08/16 08:28:55;;;;;;;8.20;7.40;;;;;;;21.08;96.59;97779.39;110142;1243;59636;-68
2023/08/16 08:31:24;;;;;;;9.50;8.70;;;;;;;21.22;96.71;97781.18;110155;1245;71367;-68
2023/08/16 08:33:53;;;;;;;8.80;8.00;;;;;;;21.41;95.57;97789.68;110145;1243;69799;-69
2023/08/16 08:36:23;;;;;;;9.20;8.40;;;;;;;21.64;95.00;97783.36;110115;1245;69366;-68
2023/08/16 08:38:52;;;;;;;8.80;8.00;;;;;;;21.86;93.63;97782.25;110159;1244;59740;-68
2023/08/16 08:41:23;;;;;;;8.60;7.60;;;;;;;22.12;93.12;97775.94;110150;1244;59753;-68
2023/08/16 08:44:06;;;;;;;7.60;6.70;;;;;;;22.38;91.04;97759.98;110130;1245;71974;-68
2023/08/16 08:46:35;;;;;;;7.60;7.00;;;;;;;22.56;89.23;97762.21;110109;1244;69261;-69
2023/08/16 08:49:05;;;;;;;7.60;6.90;;;;;;;22.63;83.55;97763.07;110110;1245;69639;-69
2023/08/16 08:51:36;;;;;;;8.10;7.40;;;;;;;22.77;85.85;97771.27;110150;1244;59747;-69
2023/08/16 08:54:05;;;;;;;8.70;7.90;;;;;;;22.87;86.98;97787.75;110167;1244;59744;-68
2023/08/16 08:56:37;;;;;;;9.10;8.30;;;;;;;22.96;85.83;97788.45;110189;1245;71350;-69
2023/08/16 08:59:07;;;;;;;8.80;8.00;;;;;;;23.06;84.92;97787.38;110155;1243;68744;-68
2023/08/16 09:01:46;;;;;;;8.00;7.30;;;;;;;23.20;83.75;97768.64;110154;1243;69596;-69
2023/08/16 09:04:15;;;;;;;7.90;6.90;;;;;;;23.34;84.04;97752.35;110062;1244;59779;-69
2023/08/16 09:06:46;;;;;;;7.70;7.00;;;;;;;23.48;84.25;97761.28;110170;1241;59669;-70
2023/08/16 09:09:14;;;;;;;8.90;7.80;;;;;;;23.66;83.92;97767.95;110154;1243;71410;-69
2023/08/16 09:11:44;;;;;;;6.90;6.30;;;;;;;23.71;81.90;97762.67;110135;1243;69826;-69
2023/08/16 09:14:13;;;;;;;7.50;6.50;;;;;;;23.80;80.39;97770.31;110154;1241;69586;-69
2023/08/16 09:16:43;;;;;;;7.20;6.50;;;;;;;23.96;80.50;97765.92;110129;1241;59680;-67
2023/08/16 09:19:13;;;;;;;6.30;5.80;;;;;;;24.09;79.70;97763.21;110161;1241;59747;-69
2023/08/16 09:21:43;;;;;;;7.20;6.50;;;;;;;24.22;79.64;97764.00;110201;1241;71151;-69
2023/08/16 09:24:12;;;;;;;8.30;7.60;;;;;;;24.23;78.30;97769.33;110151;1245;68889;-68
2023/08/16 09:26:44;;;;;;;8.40;7.70;;;;;;;24.27;79.82;97779.51;110101;1244;70022;-67
2023/08/16 09:29:13;;;;;;;7.90;7.20;;;;;;;24.17;79.08;97779.03;110068;1241;59743;-68
2023/08/16 09:31:42;;;;;;;8.80;8.00;;;;;;;24.16;78.71;97769.90;110110;1245;59678;-69
2023/08/16 09:34:12;;;;;;;;;;;;;;;24.07;78.10;97776.46;110113;1245;71618;-68
2023/08/16 09:36:45;;;;;;;7.80;7.00;;;;;;;24.01;78.41;97759.98;110101;1245;69847;-69
2023/08/16 09:39:14;;;;;;;8.20;7.40;;;;;;;24.00;80.35;97748.48;110157;1241;68539;-69
2023/08/16 09:41:50;;;;;;;7.50;6.80;;;;;;;23.94;79.33;97727.02;110163;1243;59686;-68
2023/08/16 09:44:20;;;;;;;8.80;7.90;;;;;;;23.83;78.22;97711.58;110146;1244;59654;-69
2023/08/16 09:46:49;;;;;;;8.40;7.60;;;;;;;23.72;79.49;97706.86;110127;1245;71996;-67
2023/08/16 09:49:25;;;;;;;8.70;7.90;;;;;;;23.65;79.94;97703.60;110149;1245;69317;-69
2023/08/16 09:51:54;;;;;;;8.30;7.50;;;;;;;23.65;80.33;97715.71;110123;1243;69306;-69
2023/08/16 09:54:26;;;;;;;10.60;9.50;;;;;;;23.42;81.77;97741.29;110104;1245;59741;-70
2023/08/16 09:56:55;;;;;;;10.40;9.40;;;;;;;23.20;82.66;97764.34;110188;1243;59599;-71
2023/08/16 09:59:28;;;;;;;10.80;9.80;;;;;;;23.19;81.95;97757.02;110171;1244;71999;-69
2023/08/16 10:02:00;;;;;;;9.60;8.70;;;;;;;23.18;82.85;97748.50;110149;1243;68489;-69
2023/08/16 10:04:33;;;;;;;12.60;11.30;;;;;;;23.11;83.41;97782.34;110137;1244;69643;-67
2023/08/16 10:07:11;;;;;;;10.30;9.30;;;;;;;23.27;81.42;97814.70;110173;1245;59743;-68
2023/08/16 10:09:42;;;;;;;9.10;8.20;;;;;;;23.24;82.19;97792.86;110132;1245;59637;-69
2023/08/16 10:12:12;;;;;;;8.20;7.50;;;;;;;23.41;84.34;97771.88;110159;1241;72070;-68
2023/08/16 10:14:41;;;;;;;;;;;;;;;23.65;82.13;97773.05;110160;1244;68539;-69
2023/08/16 10:17:12;;;;;;;7.90;7.20;;;;;;;23.83;81.08;97773.38;110156;1241;68593;-67
2023/08/16 10:19:44;;;;;;;8.10;7.40;;;;;;;24.07;80.12;97757.41;110163;1243;59725;-69
2023/08/16 10:22:21;;;;;;;8.90;7.70;;;;;;;24.29;80.21;97744.89;110223;1241;59689;-69
2023/08/16 10:25:13;;;;;;;8.60;7.80;;;;;;;24.53;79.51;97727.92;110170;1245;71310;-69
2023/08/16 10:27:45;;;;;;;11.00;9.00;;;;;;;24.77;78.99;97715.05;110170;1245;69865;-68
2023/08/16 10:30:23;;;;;;;8.10;7.40;;;;;;;24.94;77.54;97727.71;110164;1244;68523;-69
2023/08/16 10:33:07;;;;;;;8.10;7.40;;;;;;;25.11;75.03;97719.63;110079;1245;59681;-69
2023/08/16 10:35:38;;;;;;;8.50;7.80;;;;;;;25.30;72.20;97731.59;110100;1242;59649;-67
2023/08/16 10:38:07;;;;;;;8.10;7.40;;;;;;;25.38;70.03;97756.55;110147;1241;71816;-69
2023/08/16 10:40:37;;;;;;;8.00;7.20;;;;;;;25.41;68.19;97744.63;110183;1245;69854;-68
2023/08/16 10:43:07;;;;;;;7.80;6.60;;;;;;;25.58;69.18;97735.16;110155;1243;69120;-68
2023/08/16 10:45:36;;;;;;;7.60;6.90;;;;;;;25.44;66.26;97732.70;110123;1244;60155;-67
2023/08/16 10:48:18;;;;;;;6.90;6.20;;;;;;;25.54;65.59;97732.02;110161;1241;59715;-68
2023/08/16 10:50:57;;;;;;;7.20;6.60;;;;;;;25.46;64.97;97725.38;110178;1241;70585;-69
2023/08/16 10:53:25;;;;;;;8.10;7.30;;;;;;;25.42;65.20;97716.67;110196;1241;69144;-69
2023/08/16 10:55:55;;;;;;;;;;;;;;;25.51;66.75;97717.00;110158;1245;68517;-68
2023/08/16 10:58:25;;;;;;;9.00;8.10;;;;;;;25.37;67.40;97717.19;110132;1244;59760;-69
2023/08/16 11:00:59;;;;;;;7.50;6.80;;;;;;;25.10;67.59;97721.02;110141;1241;59685;-68
2023/08/16 11:03:37;;;;;;;8.10;7.20;;;;;;;24.99;68.57;97724.79;110188;1245;72032;-68
2023/08/16 11:06:10;;;;;;;7.50;6.80;;;;;;;24.87;69.30;97719.52;110156;1241;69965;-68
2023/08/16 11:08:44;;;;;;;7.70;7.00;;;;;;;24.72;69.58;97729.20;110168;1244;69676;-69
2023/08/16 11:11:14;;;;;;;7.60;6.90;;;;;;;24.82;71.69;97734.86;110159;1244;59702;-69
2023/08/16 11:13:43;;;;;;;6.60;6.10;;;;;;;24.96;72.04;97736.08;110158;1245;59657;-68
2023/08/16 11:16:12;;;;;;;6.60;6.00;;;;;;;25.05;73.33;97724.17;110097;1243;71812;-68
2023/08/16 11:18:41;;;;;;;5.90;5.30;;;;;;;25.20;71.91;97718.91;110147;1244;69026;-69
2023/08/16 11:21:13;;;;;;;6.70;6.00;;;;;;;25.20;69.24;97718.16;110141;1241;69403;-69
2023/08/16 11:23:43;;;;;;;6.90;6.30;;;;;;;25.21;68.42;97710.55;110172;1241;59676;-69
2023/08/16 11:26:12;;;;;;;7.10;6.40;;;;;;;25.28;69.06;97714.91;110135;1244;59627;-68
2023/08/16 11:28:42;;;;;;;7.30;6.60;;;;;;;25.30;68.61;97719.67;110108;1241;70755;-68
2023/08/16 11:31:12;;;;;;;8.00;7.20;;;;;;;25.19;67.83;97707.70;110167;1243;69662;-69
2023/08/16 11:33:43;;;;;;;7.70;7.00;;;;;;;25.22;68.38;97712.38;110139;1242;69608;-69
2023/08/16 11:36:15;;;;;;;6.80;6.20;;;;;;;25.33;66.85;97710.58;110146;1242;60149;-69
2023/08/16 11:38:48;;;;;;;6.90;6.20;;;;;;;25.44;66.72;97702.03;110139;1241;59747;-68
2023/08/16 11:41:19;;;;;;;6.70;6.00;;;;;;;25.65;66.44;97700.42;110121;1241;71257;-68